Airfield :
LOGIN :

Register | Disclaimer

   EN    FR    IT 

 










Legend :    VFR   Marginal VFR   IFR   Intensive IFR   Very Intensive IFR
Visi :
Ceiling :
>= 8 km
>= 3000ft
5 to 8 km
1000 to 3000 ft
1500m to 5 km
500 to 1000 ft
800 to 1500m
200 to 500 ft
< 800m
< 200 ft
Symbols :   Thunderstorms  Fog  Heavy snow  Heavy precipitations  Wind > 20 kt
SIGMETs :     Misc.  Thunderstorms  Icing  Turbulence  Mountain Waves  Volcanic Ashes







- Airport Elevation : 876 ft
- IATA code : MBX


LJMB - Maribor

CURRENT METAR :
  • 222000Z 36010KT CAVOK 25/16 Q1014

EXPIRED METARs :
  • 221930Z 01010KT CAVOK 26/16 Q1014
  • 221900Z 35009KT CAVOK 27/16 Q1014
  • 221830Z 35010KT CAVOK 28/16 Q1013
  • 221800Z 35011KT CAVOK 29/16 Q1013
  • 221730Z 21004KT CAVOK 32/16 Q1012

TAF TAF LJMB
Valid from the 22 at 18:00 until the 23 at 18:00 UTC


221700Z 2218/2318 18005KT CAVOK
BECMG 2218/2220 36005KT
TEMPO 2310/2312 FEW050TCU
PROB40
TEMPO 2312/2318 VRB10G20KT 7000 TSRA SCT040CB BKN050
No reported NOTAMs for that airfield.



MET'MAP, your aeronautical weather chart ! - Copyright ORBIFLY December 2007 - Disclaimer

ORBIFLY MET'MAP TEAM :

Programming & Development : Alexandra Zaïnal
Concept & Development : Baudouin d'Aumeries
Co-Development & Prog : Marc-Olivier Méhu
Technical & hardware support : Manuel Goepfert

Contact : metmap@orbifly.com




SOURCES & CREDITS :

   NOAA